| time (UTC) | temp F | wind direction | speed MPH | gust MPH | rain 1hr in | rain 24hr in | rain mn in | humidity % | barometer mb |
| 20260507024528 | 77 | 323 | 0.0 | 2.0 | 0.00 | 0.00 | 0.00 | 75 | 1011.6 |
| 20260507023023 | 77 | 326 | 0.0 | 4.0 | 0.00 | 0.00 | 0.00 | 75 | 1011.4 |
| 20260507021538 | 78 | 325 | 0.0 | 5.0 | 0.00 | 0.00 | 0.00 | 73 | 1011.4 |
| 20260507020024 | 79 | 335 | 2.0 | 7.0 | 0.00 | 0.00 | 0.00 | 71 | 1011.2 |
| 20260507014521 | 80 | 313 | 2.0 | 6.0 | 0.00 | 0.00 | 0.00 | 69 | 1011.1 |
| 20260507013015 | 81 | 336 | 1.0 | 6.0 | 0.00 | 0.00 | 0.00 | 66 | 1010.9 |
| 20260507011520 | 82 | 344 | 2.0 | 7.0 | 0.00 | 0.00 | 0.00 | 65 | 1010.9 |
| 20260507010027 | 83 | 326 | 1.0 | 8.0 | 0.00 | 0.00 | 0.00 | 64 | 1010.8 |
| 20260507004510 | 82 | 305 | 3.0 | 12.0 | 0.00 | 0.00 | 0.00 | 66 | 1010.6 |
| 20260507003009 | 83 | 323 | 4.0 | 9.0 | 0.00 | 0.00 | 0.00 | 64 | 1010.6 |
| 20260507001506 | 84 | 350 | 3.0 | 9.0 | 0.00 | 0.00 | 0.00 | 64 | 1010.5 |
| 20260507000004 | 84 | 9 | 5.0 | 11.0 | 0.00 | 0.00 | 0.00 | 61 | 1010.5 |
| 20260506234501 | 84 | 339 | 6.0 | 14.0 | 0.00 | 0.00 | 0.00 | 56 | 1010.5 |
| 20260506233100 | 84 | 318 | 6.0 | 12.0 | 0.00 | 0.00 | 0.00 | 55 | 1010.6 |
| 20260506231557 | 84 | 351 | 7.0 | 14.0 | 0.00 | 0.00 | 0.00 | 57 | 1010.7 |
| 20260506230057 | 84 | 320 | 6.0 | 13.0 | 0.00 | 0.00 | 0.00 | 56 | 1010.8 |
| 20260506224551 | 85 | 337 | 5.0 | 12.0 | 0.00 | 0.00 | 0.00 | 54 | 1010.8 |
| 20260506223056 | 85 | 349 | 7.0 | 12.0 | 0.00 | 0.00 | 0.00 | 52 | 1010.9 |
| 20260506221546 | 84 | 328 | 7.0 | 14.0 | 0.00 | 0.00 | 0.00 | 54 | 1011.0 |
| 20260506220043 | 85 | 305 | 5.0 | 13.0 | 0.00 | 0.00 | 0.00 | 48 | 1011.2 |
| 20260506214543 | 85 | 42 | 6.0 | 13.0 | 0.00 | 0.00 | 0.00 | 48 | 1011.3 |
| 20260506213036 | 86 | 322 | 5.0 | 12.0 | 0.00 | 0.00 | 0.00 | 45 | 1011.4 |
| 20260506211530 | 86 | 302 | 5.0 | 13.0 | 0.00 | 0.00 | 0.00 | 46 | 1011.5 |
| 20260506210034 | 85 | 355 | 6.0 | 13.0 | 0.00 | 0.00 | 0.00 | 49 | 1011.8 |
| 20260506204536 | 85 | 330 | 5.0 | 12.0 | 0.00 | 0.00 | 0.00 | 52 | 1011.9 |
| 20260506203024 | 85 | 54 | 4.0 | 14.0 | 0.00 | 0.00 | 0.00 | 53 | 1012.0 |
| 20260506201513 | 84 | 307 | 6.0 | 14.0 | 0.00 | 0.00 | 0.00 | 56 | 1012.1 |
| 20260506200009 | 83 | 3 | 7.0 | 13.0 | 0.00 | 0.00 | 0.00 | 61 | 1012.3 |
| 20260506194511 | 83 | 89 | 9.0 | 13.0 | 0.00 | 0.00 | 0.00 | 66 | 1012.4 |
| 20260506193004 | 83 | 328 | 7.0 | 13.0 | 0.00 | 0.00 | 0.00 | 67 | 1012.6 |
| 20260506191501 | 83 | 39 | 5.0 | 14.0 | 0.00 | 0.00 | 0.00 | 67 | 1013.0 |
| 20260506190100 | 82 | 24 | 6.0 | 13.0 | 0.00 | 0.00 | 0.00 | 69 | 1013.1 |
| 20260506184604 | 82 | 330 | 6.0 | 12.0 | 0.00 | 0.00 | 0.00 | 69 | 1013.2 |
| 20260506183103 | 82 | 5 | 7.0 | 13.0 | 0.00 | 0.00 | 0.00 | 69 | 1013.4 |
| 20260506181652 | 81 | 327 | 4.0 | 13.0 | 0.00 | 0.00 | 0.00 | 70 | 1013.4 |
| 20260506180048 | 82 | 356 | 6.0 | 14.0 | 0.00 | 0.00 | 0.00 | 69 | 1013.4 |
| 20260506174545 | 82 | 36 | 6.0 | 11.0 | 0.00 | 0.00 | 0.00 | 68 | 1013.4 |
| 20260506173052 | 81 | 2 | 6.0 | 11.0 | 0.00 | 0.00 | 0.00 | 65 | 1013.3 |
| 20260506171546 | 82 | 345 | 4.0 | 10.0 | 0.00 | 0.00 | 0.00 | 65 | 1013.4 |
| 20260506170043 | 80 | 324 | 5.0 | 12.0 | 0.00 | 0.00 | 0.00 | 68 | 1013.4 |
| 20260506164545 | 80 | 314 | 5.0 | 12.0 | 0.00 | 0.00 | 0.00 | 70 | 1013.4 |
| 20260506163031 | 80 | 299 | 4.0 | 11.0 | 0.00 | 0.00 | 0.00 | 71 | 1013.4 |
| 20260506161537 | 79 | 321 | 5.0 | 12.0 | 0.00 | 0.00 | 0.00 | 70 | 1013.3 |
| 20260506160037 | 80 | 4 | 4.0 | 9.0 | 0.00 | 0.00 | 0.00 | 66 | 1013.2 |
| 20260506154522 | 80 | 357 | 2.0 | 9.0 | 0.00 | 0.01 | 0.00 | 64 | 1013.2 |
| 20260506153019 | 79 | 301 | 3.0 | 9.0 | 0.00 | 0.01 | 0.00 | 62 | 1013.0 |
| 20260506151527 | 78 | 316 | 1.0 | 7.0 | 0.00 | 0.01 | 0.00 | 59 | 1013.0 |
| 20260506150024 | 77 | 62 | 1.0 | 6.0 | 0.00 | 0.01 | 0.00 | 60 | 1013.0 |
| 20260506144507 | 76 | 331 | 0.0 | 7.0 | 0.00 | 0.01 | 0.00 | 59 | 1012.9 |
| 20260506143010 | 75 | 22 | 0.0 | 0.0 | 0.00 | 0.01 | 0.00 | 59 | 1012.8 |
| 20260506141559 | 73 | 328 | 0.0 | 1.0 | 0.00 | 0.01 | 0.00 | 61 | 1012.8 |
| 20260506140104 | 71 | 200 | 0.0 | 0.0 | 0.00 | 0.01 | 0.00 | 65 | 1012.7 |
| 20260506134550 | 68 | 202 | 0.0 | 0.0 | 0.00 | 0.01 | 0.00 | 72 | 1012.5 |
| 20260506133049 | 66 | 192 | 0.0 | 0.0 | 0.00 | 0.01 | 0.00 | 76 | 1012.4 |
| 20260506131544 | 65 | 192 | 0.0 | 0.0 | 0.00 | 0.01 | 0.00 | 78 | 1012.3 |
| 20260506130053 | 64 | 141 | 0.0 | 1.0 | 0.00 | 0.01 | 0.00 | 78 | 1012.1 |
| 20260506124538 | 64 | 152 | 0.0 | 1.0 | 0.00 | 0.01 | 0.00 | 77 | 1012.0 |
| 20260506123137 | 65 | 148 | 0.0 | 0.0 | 0.00 | 0.01 | 0.00 | 77 | 1012.0 |
| 20260506121530 | 65 | 186 | 0.0 | 4.0 | 0.00 | 0.01 | 0.00 | 77 | 1011.5 |
| 20260506120031 | 65 | 160 | 1.0 | 4.0 | 0.00 | 0.01 | 0.00 | 76 | 1011.2 |
| 20260506114538 | 65 | 176 | 0.0 | 3.0 | 0.00 | 0.01 | 0.00 | 76 | 1011.0 |
| 20260506113022 | 66 | 152 | 1.0 | 4.0 | 0.00 | 0.01 | 0.00 | 75 | 1010.9 |
| 20260506111518 | 67 | 142 | 0.0 | 0.0 | 0.00 | 0.01 | 0.00 | 74 | 1010.9 |
| 20260506110014 | 68 | 151 | 0.0 | 0.0 | 0.00 | 0.01 | 0.00 | 73 | 1010.9 |
| 20260506104510 | 68 | 158 | 0.0 | 0.0 | 0.00 | 0.01 | 0.00 | 72 | 1010.8 |
| 20260506103014 | 69 | 175 | 0.0 | 5.0 | 0.00 | 0.01 | 0.00 | 72 | 1010.8 |
| 20260506101504 | 69 | 184 | 1.0 | 5.0 | 0.00 | 0.01 | 0.00 | 72 | 1010.8 |
| 20260506100104 | 69 | 210 | 3.0 | 7.0 | 0.00 | 0.01 | 0.00 | 71 | 1010.8 |
| 20260506094600 | 70 | 184 | 0.0 | 5.0 | 0.00 | 0.01 | 0.00 | 71 | 1010.9 |
| 20260506093103 | 70 | 211 | 0.0 | 2.0 | 0.00 | 0.01 | 0.00 | 71 | 1010.9 |
| 20260506091554 | 70 | 171 | 0.0 | 4.0 | 0.00 | 0.01 | 0.00 | 71 | 1010.9 |
| 20260506090051 | 70 | 156 | 1.0 | 5.0 | 0.00 | 0.01 | 0.00 | 71 | 1011.0 |
| 20260506084550 | 70 | 139 | 0.0 | 4.0 | 0.00 | 0.01 | 0.00 | 71 | 1011.2 |
| 20260506083044 | 70 | 165 | 1.0 | 4.0 | 0.00 | 0.01 | 0.00 | 71 | 1011.1 |
| 20260506081539 | 71 | 162 | 0.0 | 3.0 | 0.00 | 0.01 | 0.00 | 71 | 1011.2 |
| 20260506073029 | 71 | 181 | 0.0 | 4.0 | 0.00 | 0.01 | 0.00 | 73 | 1011.5 |
| 20260506071527 | 71 | 146 | 0.0 | 4.0 | 0.00 | 0.01 | 0.00 | 75 | 1011.5 |
| 20260506061515 | 71 | 214 | 0.0 | 3.0 | 0.00 | 0.01 | 0.01 | 82 | 1011.9 |
| 20260506044506 | 74 | 325 | 0.0 | 0.0 | 0.00 | 0.01 | 0.01 | 82 | 1011.4 |
| 20260506043001 | 75 | 325 | 0.0 | 1.0 | 0.00 | 0.01 | 0.01 | 82 | 1011.3 |
| 20260506041608 | 75 | 337 | 0.0 | 1.0 | 0.00 | 0.01 | 0.01 | 81 | 1011.1 |
| 20260506040057 | 76 | 328 | 0.0 | 4.0 | 0.00 | 0.01 | 0.01 | 80 | 1011.0 |
| 20260506034557 | 76 | 327 | 0.0 | 0.0 | 0.00 | 0.01 | 0.01 | 79 | 1011.0 |
| 20260506033100 | 76 | 274 | 0.0 | 4.0 | 0.00 | 0.01 | 0.01 | 78 | 1011.0 |
| 20260506031555 | 77 | 294 | 0.0 | 6.0 | 0.00 | 0.01 | 0.01 | 77 | 1010.9 |
| 20260506030050 | 77 | 319 | 0.0 | 5.0 | 0.00 | 0.01 | 0.01 | 74 | 1010.8 |